18:39
Airports
History
Links
Donate
Help keep this website running!
PayPal
Bitcoin
Information on this page is community maintained and may be outdated or inaccurate and is intended for reference only or PC simulator navigating.
Always use approved charts for navigating.
LIQW
Sarzana Luni
Sarzana Luni (LIQW)
Sarzana, Liguria, Italy (19038)
(U)
Lat/Lng:44° 5' 14" N / 9° 59' 18" E
44.087223 / 9.988333
Elevation:47'ft 14mMSL
ID / ICAO:LIQW
Runways:1
Longest:(36-18) 901.2m 2,957ft Asphalt
Distance To
Airport ID:
Nearby VORs <50NM
Nearby NDBs
METARUpdated 07-20-17 13:55 GMT
Altimeter: 29.91
Visibility: 6.2 statute miles
Wind: 3 knots (180°)
Temp: 26°c 79°f
Humidity: 74.0%

METAR: LIQW 201355Z 18003KT CAVOK 26/21 Q1013

(Powered by phpweather)
Runway 36 / 18
Dimensions:901.2 x 22.9m 2957' x 75'ft
Surface:Asphalt
Runway 36 [A]Runway 18 [B]
Heading:000°TH 180°TH
Lat:
Lng:
44° 4' 59.43"N
9° 59' 18"E
44° 5' 28.58"N
9° 59' 18"E
User Notes and Comments
Google Map
Nearby Airports
4 Massa Cinquale 10.4 NM
LILQ SE 132°
(U) Lucca Tassignano 34.4 NM
LIQL ESE 121°
(C) PISA 34.4 NM
LIRP (WX) SE 144°
4 Pavullo 44.8 NM
LIDP ENE 68°
(C) PARMA 53.3 NM
LIMP NNE 16°
(U) REGGIO EMILIA 53.8 NM
LIDE NE 38°
(R) Modena Marzaglia 55.7 NM
LIPM NE 47°
VFR Chart
Flight Planning at SkyVector.com